Time;durP1;ratioP1;P1;durP2;ratioP2;P2;SDS_P1;SDS_P2;PMS_P1;PMS_P2;Temp;Humidity;BMP_temperature;BMP_pressure;BME280_temperature;BME280_humidity;BME280_pressure;Samples;Min_cycle;Max_cycle;Signal;HPM_P1;HPM_P2
2023/06/26 00:00:19;;;;;;;7.30;5.90;;;;;;;28.09;61.68;99908.21;108035;1289;22459;-65
2023/06/26 00:02:45;;;;;;;7.70;6.10;;;;;;;28.07;61.84;99911.40;108000;1278;22012;-60
2023/06/26 00:05:10;;;;;;;7.20;5.80;;;;;;;28.03;61.77;99913.00;107994;1278;21990;-66
2023/06/26 00:07:36;;;;;;;7.50;6.00;;;;;;;27.99;62.21;99911.25;108024;1289;22027;-66
2023/06/26 00:10:02;;;;;;;8.30;5.90;;;;;;;27.93;62.09;99914.31;108027;1285;21990;-60
2023/06/26 00:12:29;;;;;;;7.60;6.50;;;;;;;27.89;62.27;99916.14;108037;1289;22176;-60
2023/06/26 00:14:54;;;;;;;7.80;6.20;;;;;;;27.85;62.57;99913.75;108015;1287;22046;-60
2023/06/26 00:17:20;;;;;;;9.20;5.60;;;;;;;27.82;62.75;99907.61;108001;1289;22455;-61
2023/06/26 00:19:46;;;;;;;9.00;6.80;;;;;;;27.79;63.21;99906.76;108040;1287;22252;-64
2023/06/26 00:22:12;;;;;;;8.10;6.00;;;;;;;27.76;63.48;99905.27;107977;1289;21994;-63
2023/06/26 00:24:38;;;;;;;9.60;6.80;;;;;;;27.76;63.94;99908.48;107999;1278;21992;-62
2023/06/26 00:27:04;;;;;;;10.40;6.10;;;;;;;27.76;63.83;99911.40;107981;1277;22083;-62
2023/06/26 00:29:29;;;;;;;11.50;6.80;;;;;;;27.74;64.42;99918.62;108042;1288;23059;-62
2023/06/26 00:31:55;;;;;;;11.20;6.70;;;;;;;27.65;64.36;99917.26;108069;1289;21988;-67
2023/06/26 00:34:22;;;;;;;9.60;6.60;;;;;;;27.57;64.48;99917.23;108017;1281;21991;-63
2023/06/26 00:36:47;;;;;;;10.00;7.20;;;;;;;27.51;65.10;99913.34;107995;1284;21992;-63
2023/06/26 00:39:13;;;;;;;9.80;6.90;;;;;;;27.41;65.74;99913.57;107988;1289;21999;-63
2023/06/26 00:41:39;;;;;;;10.30;6.80;;;;;;;27.34;65.58;99917.55;107971;1289;21992;-63
2023/06/26 00:44:05;;;;;;;9.60;7.30;;;;;;;27.29;66.02;99911.83;108001;1287;21993;-63
2023/06/26 00:46:32;;;;;;;11.70;7.50;;;;;;;27.26;66.22;99909.70;107990;1282;22049;-67
2023/06/26 00:49:03;;;;;;;7.60;6.30;;;;;;;27.23;66.14;99903.51;108009;1287;22030;-62
2023/06/26 00:51:29;;;;;;;10.00;6.30;;;;;;;27.21;66.53;99895.39;108001;1288;21990;-63
2023/06/26 00:53:55;;;;;;;8.70;6.70;;;;;;;27.22;66.99;99883.45;107991;1277;21960;-64
2023/06/26 00:56:20;;;;;;;9.50;6.20;;;;;;;27.26;67.21;99868.36;107856;1289;21998;-63
2023/06/26 00:58:46;;;;;;;7.60;6.70;;;;;;;27.30;67.27;99853.01;108007;1289;22029;-63
2023/06/26 01:01:15;;;;;;;11.70;6.60;;;;;;;27.30;68.24;99833.13;107989;1289;21995;-66
2023/06/26 01:03:41;;;;;;;10.70;7.20;;;;;;;27.23;68.81;99827.18;107880;1289;22284;-63
2023/06/26 01:06:06;;;;;;;10.30;7.00;;;;;;;27.10;68.53;99825.25;107954;1289;21992;-66
2023/06/26 01:08:32;;;;;;;8.40;6.80;;;;;;;27.02;69.15;99826.04;107891;1288;21998;-66
2023/06/26 01:10:58;;;;;;;10.50;6.80;;;;;;;26.94;69.29;99831.96;107938;1288;21994;-66
2023/06/26 01:13:24;;;;;;;10.10;6.80;;;;;;;27.04;68.66;99837.02;107914;1289;22000;-63
2023/06/26 01:15:49;;;;;;;7.30;6.50;;;;;;;27.09;68.80;99836.94;107967;1281;22027;-63
2023/06/26 01:18:16;;;;;;;7.90;7.00;;;;;;;27.12;68.45;99837.67;108008;1289;21968;-63
2023/06/26 01:20:42;;;;;;;8.80;7.10;;;;;;;27.18;68.50;99835.90;107951;1289;22028;-66
2023/06/26 01:23:31;;;;;;;9.30;7.30;;;;;;;27.22;68.19;99837.55;107897;1289;21988;-63
2023/06/26 01:26:19;;;;;;;12.00;7.20;;;;;;;27.24;68.33;99832.13;107991;1289;21990;-64
2023/06/26 01:28:45;;;;;;;9.10;7.30;;;;;;;27.22;68.86;99824.05;107996;1289;21999;-63
2023/06/26 01:31:11;;;;;;;9.60;7.80;;;;;;;27.15;68.84;99822.15;107895;1280;21989;-67
2023/06/26 01:33:38;;;;;;;9.50;7.10;;;;;;;27.11;68.86;99819.30;108012;1289;23148;-66
2023/06/26 01:36:04;;;;;;;21.00;7.70;;;;;;;27.10;69.11;99824.92;108028;1289;22015;-66
2023/06/26 01:38:30;;;;;;;12.20;7.10;;;;;;;27.09;69.57;99825.00;107988;1289;21990;-66
2023/06/26 01:40:56;;;;;;;10.50;7.50;;;;;;;27.05;69.50;99821.93;107977;1284;22373;-64
2023/06/26 01:43:29;;;;;;;9.30;7.90;;;;;;;27.03;69.95;99822.34;107792;1289;22006;-67
2023/06/26 01:46:18;;;;;;;12.50;8.30;;;;;;;26.97;70.11;99823.88;107924;1287;22877;-67
2023/06/26 01:49:01;;;;;;;17.90;8.10;;;;;;;26.90;70.84;99825.48;107972;1284;23055;-64
2023/06/26 01:51:30;;;;;;;16.00;8.20;;;;;;;26.79;71.36;99834.45;107971;1289;22002;-65
2023/06/26 01:53:57;;;;;;;16.10;8.00;;;;;;;26.73;71.67;99837.21;107993;1284;22006;-67
2023/06/26 01:56:22;;;;;;;18.00;8.50;;;;;;;26.69;72.61;99838.80;107998;1287;21993;-63
2023/06/26 01:58:48;;;;;;;10.80;8.10;;;;;;;26.67;71.81;99847.29;107822;1289;21995;-65
2023/06/26 02:01:14;;;;;;;10.50;7.90;;;;;;;26.63;72.32;99851.02;108005;1289;21996;-66
2023/06/26 02:03:42;;;;;;;11.30;7.70;;;;;;;26.60;72.19;99850.92;107855;1289;21992;-63
2023/06/26 02:06:07;;;;;;;11.50;8.50;;;;;;;26.58;72.40;99845.89;107829;1289;21991;-66
2023/06/26 02:08:33;;;;;;;11.70;7.60;;;;;;;26.58;72.32;99838.48;107976;1289;22049;-65
2023/06/26 02:10:59;;;;;;;13.40;8.60;;;;;;;26.62;72.25;99828.42;108032;1289;21992;-65
2023/06/26 02:13:25;;;;;;;14.80;9.20;;;;;;;26.66;72.15;99825.73;108013;1287;22000;-65
2023/06/26 02:15:51;;;;;;;9.70;8.10;;;;;;;26.67;72.41;99830.84;108009;1284;21955;-63
2023/06/26 02:18:17;;;;;;;11.80;9.00;;;;;;;26.67;72.42;99831.40;107982;1289;21992;-65
2023/06/26 02:20:43;;;;;;;10.90;8.60;;;;;;;26.66;72.91;99832.27;108025;1289;21989;-63
2023/06/26 02:23:09;;;;;;;11.40;8.10;;;;;;;26.62;72.30;99831.10;107974;1287;22048;-65
2023/06/26 02:25:35;;;;;;;15.50;9.60;;;;;;;26.62;72.89;99827.69;108020;1289;21998;-63
2023/06/26 02:28:01;;;;;;;10.30;8.60;;;;;;;26.62;72.73;99829.92;107983;1289;23715;-63
2023/06/26 02:30:26;;;;;;;12.50;8.60;;;;;;;26.61;72.45;99838.27;107973;1289;21999;-63
2023/06/26 02:32:52;;;;;;;9.10;7.90;;;;;;;26.61;72.45;99841.81;108013;1281;22029;-64
2023/06/26 02:35:17;;;;;;;10.30;8.70;;;;;;;26.61;72.30;99841.83;108002;1289;21986;-66
2023/06/26 02:37:43;;;;;;;12.10;8.60;;;;;;;26.62;72.96;99848.23;107981;1287;22021;-63
2023/06/26 02:40:11;;;;;;;13.70;9.00;;;;;;;26.61;73.26;99849.75;107830;1281;21984;-64
2023/06/26 02:42:37;;;;;;;11.60;8.30;;;;;;;26.57;73.01;99851.88;108018;1289;21992;-64
2023/06/26 02:45:02;;;;;;;9.70;8.40;;;;;;;26.54;73.20;99851.11;108003;1289;21980;-63
2023/06/26 02:47:28;;;;;;;13.00;8.60;;;;;;;26.51;73.47;99855.17;108039;1288;21990;-66
2023/06/26 02:49:54;;;;;;;11.80;9.10;;;;;;;26.49;74.48;99853.89;108011;1287;21995;-63
2023/06/26 02:52:19;;;;;;;11.50;9.00;;;;;;;26.47;74.38;99848.48;107975;1289;21997;-65
2023/06/26 02:54:45;;;;;;;10.70;8.10;;;;;;;26.46;73.79;99844.79;107982;1287;22029;-64
2023/06/26 02:57:14;;;;;;;11.20;8.60;;;;;;;26.47;73.59;99840.03;107974;1283;22200;-64
2023/06/26 02:59:40;;;;;;;10.00;8.40;;;;;;;26.46;74.08;99841.74;108087;1289;22030;-64
2023/06/26 03:02:06;;;;;;;10.60;8.80;;;;;;;26.44;74.03;99836.66;108002;1287;22001;-66
2023/06/26 03:04:31;;;;;;;12.20;8.90;;;;;;;26.43;74.06;99839.77;107993;1289;21994;-66
2023/06/26 03:06:58;;;;;;;11.00;8.70;;;;;;;26.41;74.56;99847.86;107965;1289;21994;-64
2023/06/26 03:09:24;;;;;;;13.50;9.00;;;;;;;26.39;74.52;99854.75;108011;1289;22017;-66
2023/06/26 03:11:49;;;;;;;11.30;8.70;;;;;;;26.35;75.77;99844.06;108068;1285;21998;-71
2023/06/26 03:14:16;;;;;;;11.90;9.20;;;;;;;26.32;74.56;99839.11;108008;1289;21991;-63
2023/06/26 03:16:42;;;;;;;14.70;10.00;;;;;;;26.30;74.75;99832.15;108121;1281;22018;-72
2023/06/26 03:19:08;;;;;;;13.20;9.00;;;;;;;26.28;75.13;99835.54;107871;1289;22746;-70
2023/06/26 03:21:37;;;;;;;13.00;8.60;;;;;;;26.25;74.94;99837.78;107798;1289;22778;-69
2023/06/26 03:24:03;;;;;;;12.50;7.40;;;;;;;26.24;74.75;99839.83;107790;1289;22453;-63
2023/06/26 03:26:29;;;;;;;9.30;7.20;;;;;;;26.13;75.35;99842.18;108655;1289;21991;-64
2023/06/26 03:28:55;;;;;;;10.30;7.30;;;;;;;26.08;75.79;99844.04;108063;1289;23611;-64
2023/06/26 03:31:20;;;;;;;9.40;7.30;;;;;;;26.06;76.37;99846.88;108038;1280;22023;-64
2023/06/26 03:33:46;;;;;;;23.80;9.50;;;;;;;26.05;75.92;99846.52;108063;1289;21990;-68
2023/06/26 03:36:14;;;;;;;20.60;7.80;;;;;;;26.07;76.17;99845.36;108088;1287;21988;-69
2023/06/26 03:38:39;;;;;;;23.50;8.20;;;;;;;26.12;76.25;99843.88;108044;1289;22001;-64
2023/06/26 03:41:05;;;;;;;10.90;7.90;;;;;;;26.14;75.98;99844.84;108061;1289;21998;-68
2023/06/26 03:43:33;;;;;;;9.00;7.70;;;;;;;26.13;76.18;99848.85;108089;1288;21989;-64
2023/06/26 03:45:58;;;;;;;8.90;7.90;;;;;;;26.11;76.10;99849.34;108028;1280;21992;-63
2023/06/26 03:48:24;;;;;;;11.70;7.90;;;;;;;26.07;76.77;99852.95;108043;1289;22000;-69
2023/06/26 03:50:49;;;;;;;12.60;8.70;;;;;;;26.01;77.61;99853.11;108022;1289;22011;-70
2023/06/26 03:53:15;;;;;;;11.40;8.20;;;;;;;25.95;77.27;99852.16;108069;1281;21991;-72
2023/06/26 03:55:40;;;;;;;12.00;9.40;;;;;;;25.92;77.36;99848.30;107821;1283;22761;-63
2023/06/26 03:58:06;;;;;;;13.90;9.90;;;;;;;25.92;77.09;99846.88;107836;1289;22009;-73
2023/06/26 04:00:32;;;;;;;16.60;9.70;;;;;;;25.94;77.35;99845.39;108108;1288;23615;-71
2023/06/26 04:02:57;;;;;;;12.70;10.40;;;;;;;25.99;77.21;99848.10;107854;1280;22198;-64
2023/06/26 04:05:23;;;;;;;11.40;9.00;;;;;;;26.05;77.20;99848.30;108068;1289;22039;-69
2023/06/26 04:07:50;;;;;;;12.50;8.80;;;;;;;26.10;76.89;99855.06;108041;1289;21995;-71
2023/06/26 04:10:20;;;;;;;13.90;9.30;;;;;;;26.15;77.07;99857.72;108082;1288;21989;-72
2023/06/26 04:12:48;;;;;;;13.60;9.80;;;;;;;26.24;76.90;99854.41;108054;1289;23641;-63
2023/06/26 04:15:13;;;;;;;12.90;9.20;;;;;;;26.38;75.93;99850.36;108069;1289;21987;-63
2023/06/26 04:17:39;;;;;;;12.70;10.10;;;;;;;26.49;75.33;99849.56;108070;1289;21985;-69
2023/06/26 04:20:06;;;;;;;11.50;9.40;;;;;;;26.54;75.34;99850.73;108070;1289;21995;-63
2023/06/26 04:22:33;;;;;;;10.40;9.10;;;;;;;26.55;75.19;99851.48;107888;1289;21977;-69
2023/06/26 04:24:58;;;;;;;11.30;9.40;;;;;;;26.51;75.63;99850.98;108105;1280;21987;-68
2023/06/26 04:27:24;;;;;;;14.00;9.90;;;;;;;26.52;75.60;99851.56;108065;1289;21997;-64
2023/06/26 04:29:49;;;;;;;11.10;9.50;;;;;;;26.51;75.54;99854.78;108050;1278;22070;-68
2023/06/26 04:32:15;;;;;;;15.10;10.00;;;;;;;26.51;75.95;99857.44;108057;1289;22001;-64
2023/06/26 04:34:44;;;;;;;12.30;9.80;;;;;;;26.50;75.76;99859.47;108404;1284;21985;-63
2023/06/26 04:37:10;;;;;;;11.50;9.20;;;;;;;26.52;75.83;99858.80;108196;1288;21992;-67
2023/06/26 04:39:37;;;;;;;11.50;10.20;;;;;;;26.53;76.19;99858.73;108299;1287;21992;-68
2023/06/26 04:42:06;;;;;;;12.50;10.40;;;;;;;26.53;76.18;99853.70;108278;1288;21996;-67
2023/06/26 04:44:32;;;;;;;11.00;9.70;;;;;;;26.51;76.22;99854.38;108146;1287;23854;-68
2023/06/26 04:46:58;;;;;;;14.80;10.60;;;;;;;26.35;77.44;99854.91;108064;1286;22025;-68
2023/06/26 04:49:24;;;;;;;12.60;9.60;;;;;;;26.24;77.80;99856.36;108089;1288;21999;-66
2023/06/26 04:51:50;;;;;;;11.80;10.00;;;;;;;26.20;77.74;99852.59;108108;1288;21992;-67
2023/06/26 04:54:16;;;;;;;10.60;9.40;;;;;;;26.20;78.06;99854.55;108052;1288;21995;-67
2023/06/26 04:56:43;;;;;;;10.80;9.20;;;;;;;26.21;78.12;99856.84;108051;1289;21988;-67
2023/06/26 04:59:12;;;;;;;12.30;9.50;;;;;;;26.20;78.42;99854.19;108065;1280;22005;-67
2023/06/26 05:01:39;;;;;;;13.20;10.00;;;;;;;26.19;78.36;99853.24;108101;1289;22029;-63
2023/06/26 05:04:05;;;;;;;11.50;9.60;;;;;;;26.19;78.33;99852.67;108118;1289;21990;-66
2023/06/26 05:06:31;;;;;;;12.50;9.70;;;;;;;26.20;78.36;99849.73;108165;1284;21989;-69
2023/06/26 05:08:57;;;;;;;14.60;9.80;;;;;;;26.21;78.59;99846.78;108065;1288;22770;-68
2023/06/26 05:11:24;;;;;;;14.40;10.00;;;;;;;26.23;78.75;99843.14;108054;1288;21990;-65
2023/06/26 05:13:49;;;;;;;13.40;10.50;;;;;;;26.26;79.05;99838.76;108062;1288;21997;-68
2023/06/26 05:16:15;;;;;;;12.50;9.70;;;;;;;26.29;79.27;99844.09;108077;1288;21980;-68
2023/06/26 05:18:41;;;;;;;14.00;10.00;;;;;;;26.31;79.38;99838.71;108072;1281;21987;-67
2023/06/26 05:21:06;;;;;;;11.40;10.20;;;;;;;26.34;79.75;99841.91;108045;1288;22005;-67
2023/06/26 05:23:33;;;;;;;10.80;9.60;;;;;;;26.40;80.56;99831.98;108010;1288;21988;-67
2023/06/26 05:26:00;;;;;;;12.00;9.60;;;;;;;26.45;80.18;99827.45;108111;1288;21997;-65
2023/06/26 05:28:27;;;;;;;12.60;10.90;;;;;;;26.50;80.19;99822.16;108093;1288;22045;-65
2023/06/26 05:30:54;;;;;;;11.20;9.50;;;;;;;26.53;80.71;99819.47;108076;1288;21995;-66
2023/06/26 05:33:23;;;;;;;11.90;10.50;;;;;;;26.55;80.49;99814.59;108084;1288;21984;-66
2023/06/26 05:35:48;;;;;;;12.30;10.10;;;;;;;26.55;80.89;99811.76;108106;1278;21994;-65
2023/06/26 05:38:14;;;;;;;11.90;10.60;;;;;;;26.55;81.45;99813.38;108089;1288;21987;-64
2023/06/26 05:40:41;;;;;;;12.90;10.20;;;;;;;26.56;81.19;99811.10;108071;1283;21990;-65
2023/06/26 05:43:07;;;;;;;11.90;10.50;;;;;;;26.59;81.25;99810.52;108094;1288;22027;-65
2023/06/26 05:45:33;;;;;;;13.40;10.30;;;;;;;26.64;81.20;99807.75;108080;1288;21992;-66
2023/06/26 05:47:58;;;;;;;15.00;11.70;;;;;;;26.69;81.37;99807.13;108039;1288;21992;-67
2023/06/26 05:50:26;;;;;;;13.50;11.50;;;;;;;26.71;81.41;99806.92;108075;1287;22031;-67
2023/06/26 05:52:52;;;;;;;14.80;11.30;;;;;;;26.76;81.33;99803.13;108077;1288;21978;-66
2023/06/26 05:55:18;;;;;;;13.10;11.20;;;;;;;26.80;81.80;99800.20;108028;1288;21988;-65
2023/06/26 05:57:45;;;;;;;13.60;11.50;;;;;;;26.86;81.39;99800.09;108148;1287;21989;-65
2023/06/26 06:00:11;;;;;;;13.00;10.70;;;;;;;26.88;81.67;99798.84;107848;1289;21990;-66
2023/06/26 06:02:38;;;;;;;14.00;11.30;;;;;;;26.88;82.03;99796.32;108092;1288;22468;-65
2023/06/26 06:05:05;;;;;;;12.80;11.40;;;;;;;26.87;81.91;99793.70;108070;1288;21992;-65
2023/06/26 06:07:35;;;;;;;13.90;11.90;;;;;;;26.89;82.20;99797.17;108084;1288;21996;-65
2023/06/26 06:10:01;;;;;;;14.20;12.20;;;;;;;26.91;83.58;99801.47;108077;1288;21989;-65
2023/06/26 06:12:27;;;;;;;14.30;12.40;;;;;;;26.92;82.53;99803.53;108136;1277;22083;-65
2023/06/26 06:14:56;;;;;;;17.90;12.50;;;;;;;26.93;82.03;99804.11;108092;1284;22056;-66
2023/06/26 06:17:22;;;;;;;14.00;11.80;;;;;;;26.97;82.94;99803.73;108088;1288;22004;-65
2023/06/26 06:19:47;;;;;;;13.70;12.20;;;;;;;27.01;83.05;99803.21;108076;1287;21999;-64
2023/06/26 06:22:13;;;;;;;15.10;12.70;;;;;;;27.04;83.32;99801.20;108091;1288;21980;-67
2023/06/26 06:24:39;;;;;;;15.70;12.70;;;;;;;27.03;82.79;99805.23;108119;1288;22020;-66
2023/06/26 06:27:04;;;;;;;15.80;13.80;;;;;;;26.99;81.92;99806.45;108074;1288;22026;-63
2023/06/26 06:29:30;;;;;;;17.80;12.10;;;;;;;26.97;82.71;99808.66;108069;1288;23062;-64
2023/06/26 06:31:56;;;;;;;16.50;13.00;;;;;;;26.94;83.31;99811.27;108036;1288;22459;-63
2023/06/26 06:34:21;;;;;;;17.30;14.50;;;;;;;26.91;83.73;99811.51;108045;1285;21991;-63
2023/06/26 06:36:47;;;;;;;18.90;14.30;;;;;;;26.87;83.72;99809.20;108086;1288;22000;-63
2023/06/26 06:39:13;;;;;;;19.60;16.20;;;;;;;26.83;82.83;99811.54;108078;1284;22048;-62
2023/06/26 06:41:38;;;;;;;24.30;18.10;;;;;;;26.88;82.79;99813.90;108088;1288;21985;-63
2023/06/26 06:44:04;;;;;;;18.10;15.40;;;;;;;27.01;81.78;99814.78;108078;1288;21999;-62
2023/06/26 06:46:30;;;;;;;16.70;14.80;;;;;;;27.03;81.91;99816.92;108071;1288;22006;-62
2023/06/26 06:48:56;;;;;;;15.90;14.20;;;;;;;27.04;82.27;99820.11;108110;1281;21990;-66
2023/06/26 06:51:22;;;;;;;17.40;15.40;;;;;;;27.02;81.76;99820.40;108121;1288;22012;-60
2023/06/26 06:53:48;;;;;;;17.40;14.50;;;;;;;27.01;81.76;99817.06;108138;1287;21984;-60
2023/06/26 06:56:13;;;;;;;19.20;15.10;;;;;;;27.03;82.17;99815.66;108088;1283;22000;-64
2023/06/26 06:58:42;;;;;;;17.40;15.60;;;;;;;27.05;82.33;99816.61;108062;1287;22016;-65
2023/06/26 07:01:09;;;;;;;17.60;15.50;;;;;;;27.09;82.13;99815.89;108068;1289;21993;-61
2023/06/26 07:03:35;;;;;;;21.60;19.10;;;;;;;27.14;82.34;99817.71;108108;1289;21993;-64
2023/06/26 07:06:03;;;;;;;19.50;17.60;;;;;;;27.18;82.04;99820.03;108082;1288;21987;-64
2023/06/26 07:08:30;;;;;;;17.50;15.60;;;;;;;27.22;81.35;99818.59;108088;1277;22474;-60
2023/06/26 07:10:59;;;;;;;18.10;14.40;;;;;;;27.26;81.43;99820.92;108250;1286;21987;-62
2023/06/26 07:13:25;;;;;;;17.30;14.80;;;;;;;27.30;81.39;99824.20;108052;1289;21992;-61
2023/06/26 07:15:51;;;;;;;16.50;14.80;;;;;;;27.35;81.25;99828.82;108039;1289;21990;-66
2023/06/26 07:18:17;;;;;;;15.60;13.70;;;;;;;27.39;81.77;99835.61;108039;1288;21996;-62
2023/06/26 07:20:43;;;;;;;15.40;13.80;;;;;;;27.40;82.02;99842.69;107804;1288;21996;-66
2023/06/26 07:23:08;;;;;;;19.90;14.60;;;;;;;27.44;81.55;99850.35;108026;1288;21996;-61
2023/06/26 07:25:34;;;;;;;15.80;14.10;;;;;;;27.45;81.97;99852.91;108032;1288;21991;-61
2023/06/26 07:28:00;;;;;;;17.80;14.40;;;;;;;27.45;81.30;99851.65;108062;1289;21999;-61
2023/06/26 07:30:28;;;;;;;17.80;13.80;;;;;;;27.49;81.46;99851.11;108019;1285;21989;-61
2023/06/26 07:32:54;;;;;;;15.60;13.90;;;;;;;27.57;82.01;99852.04;108054;1288;21989;-61
2023/06/26 07:35:19;;;;;;;18.20;13.90;;;;;;;27.69;81.77;99848.79;107878;1289;180478;-61
2023/06/26 07:37:46;;;;;;;15.90;14.20;;;;;;;27.80;81.25;99851.33;108018;1279;21984;-61
2023/06/26 07:40:11;;;;;;;17.40;14.90;;;;;;;27.95;81.70;99853.42;108023;1288;21989;-60
2023/06/26 07:42:37;;;;;;;17.90;15.30;;;;;;;28.10;81.80;99859.02;107982;1283;21994;-61
2023/06/26 07:45:09;;;;;;;28.80;20.70;;;;;;;28.25;81.46;99855.23;108020;1289;21994;-61
2023/06/26 07:47:36;;;;;;;17.80;15.80;;;;;;;28.35;81.45;99856.13;107991;1288;22164;-60
2023/06/26 07:50:02;;;;;;;19.30;16.30;;;;;;;28.41;81.58;99855.00;108083;1288;21994;-61
2023/06/26 07:52:30;;;;;;;19.30;15.40;;;;;;;28.54;81.93;99854.84;108286;1288;21986;-66
2023/06/26 07:54:56;;;;;;;20.70;16.30;;;;;;;28.68;81.32;99858.25;108186;1289;21995;-62
2023/06/26 07:57:21;;;;;;;27.90;18.00;;;;;;;28.80;80.72;99858.73;108171;1288;22566;-66
2023/06/26 07:59:47;;;;;;;17.90;15.60;;;;;;;28.85;80.10;99856.98;108224;1280;22085;-68
2023/06/26 08:02:13;;;;;;;24.50;15.90;;;;;;;28.88;79.89;99858.48;108276;1289;21992;-62
2023/06/26 08:04:38;;;;;;;19.50;16.70;;;;;;;29.01;80.67;99859.44;107975;1289;21980;-61
2023/06/26 08:07:04;;;;;;;33.70;19.20;;;;;;;29.25;81.85;99860.27;108055;1288;21982;-66
2023/06/26 08:09:30;;;;;;;21.20;16.10;;;;;;;29.54;81.21;99860.83;108081;1288;21998;-62
2023/06/26 08:11:56;;;;;;;18.00;14.70;;;;;;;29.81;80.99;99859.57;108057;1277;21986;-65
2023/06/26 08:14:23;;;;;;;61.20;26.90;;;;;;;30.06;79.87;99859.98;108096;1286;21989;-61
2023/06/26 08:16:48;;;;;;;37.80;22.10;;;;;;;30.27;79.23;99856.73;108109;1288;21967;-61
2023/06/26 08:19:14;;;;;;;95.40;30.00;;;;;;;30.57;79.51;99853.13;108055;1288;21982;-66
2023/06/26 08:21:41;;;;;;;58.50;29.00;;;;;;;30.87;77.83;99848.54;108850;1284;21984;-66
2023/06/26 08:24:07;;;;;;;84.30;27.80;;;;;;;31.11;77.17;99849.10;108135;1284;21991;-66
2023/06/26 08:26:34;;;;;;;134.40;45.10;;;;;;;31.34;76.25;99842.81;108098;1287;21993;-61
2023/06/26 08:28:59;;;;;;;138.80;45.20;;;;;;;31.55;75.77;99844.36;108111;1284;22053;-62
2023/06/26 08:31:25;;;;;;;170.30;55.40;;;;;;;31.69;74.12;99841.89;108124;1280;21989;-62
2023/06/26 08:33:50;;;;;;;197.50;57.90;;;;;;;31.86;74.35;99840.98;108073;1284;21996;-61
2023/06/26 08:36:16;;;;;;;308.90;86.60;;;;;;;32.12;73.67;99837.93;108011;1287;22174;-62
2023/06/26 08:38:42;;;;;;;331.80;104.40;;;;;;;32.25;71.45;99835.92;108020;1289;22009;-61
2023/06/26 08:41:08;;;;;;;452.80;133.20;;;;;;;32.25;70.62;99834.80;107978;1289;21993;-69
2023/06/26 08:43:35;;;;;;;305.20;76.90;;;;;;;32.30;70.81;99834.80;108038;1286;22454;-69
2023/06/26 08:46:00;;;;;;;341.00;100.10;;;;;;;32.48;70.94;99831.54;108043;1288;21989;-68
2023/06/26 08:48:26;;;;;;;384.60;105.00;;;;;;;32.74;70.18;99831.13;107983;1288;21991;-61
2023/06/26 08:50:53;;;;;;;421.90;115.00;;;;;;;33.01;70.08;99829.01;107763;1287;22000;-61
2023/06/26 08:53:57;;;;;;;325.90;91.70;;;;;;;33.35;69.71;99829.72;107994;1288;22006;-68
2023/06/26 08:56:24;;;;;;;448.20;130.00;;;;;;;33.70;67.93;99830.21;108086;1288;22452;-61
2023/06/26 08:58:50;;;;;;;563.60;167.60;;;;;;;33.80;65.66;99830.21;108084;1288;21984;-68
2023/06/26 09:01:15;;;;;;;485.30;136.70;;;;;;;33.74;64.91;99833.00;107797;1287;22007;-68
2023/06/26 09:03:41;;;;;;;555.30;164.20;;;;;;;33.60;64.41;99837.05;107903;1289;21993;-61
2023/06/26 09:06:07;;;;;;;587.20;172.20;;;;;;;33.43;63.78;99834.52;108016;1284;21992;-69
2023/06/26 09:08:33;;;;;;;559.00;162.60;;;;;;;33.18;62.61;99836.23;108108;1289;22058;-62
2023/06/26 09:10:58;;;;;;;546.90;147.90;;;;;;;33.00;63.40;99836.52;107710;1289;21990;-61
2023/06/26 09:13:28;;;;;;;426.20;126.00;;;;;;;33.07;65.05;99838.27;107719;1287;21991;-69
2023/06/26 09:15:54;;;;;;;450.20;137.30;;;;;;;33.23;64.71;99844.71;108024;1281;22051;-68
2023/06/26 09:18:21;;;;;;;640.20;200.20;;;;;;;33.31;63.26;99843.61;107970;1289;21996;-62
2023/06/26 09:20:47;;;;;;;551.80;172.50;;;;;;;33.27;61.67;99847.45;108023;1283;21988;-67
2023/06/26 09:23:13;;;;;;;590.60;182.20;;;;;;;33.14;62.25;99850.57;107992;1286;21991;-61
2023/06/26 09:25:40;;;;;;;541.00;153.40;;;;;;;32.97;62.38;99858.57;107988;1289;21996;-65
2023/06/26 09:28:06;;;;;;;378.90;112.70;;;;;;;32.66;62.00;99866.37;107982;1287;21998;-63
2023/06/26 09:30:32;;;;;;;524.00;156.00;;;;;;;32.10;59.66;99874.80;107986;1289;21999;-62
2023/06/26 09:33:13;;;;;;;411.70;127.20;;;;;;;31.34;58.58;99879.52;107998;1281;21997;-67
2023/06/26 09:35:39;;;;;;;380.70;117.50;;;;;;;30.54;59.74;99883.29;107719;1289;22022;-70
2023/06/26 09:38:05;;;;;;;351.40;106.80;;;;;;;29.83;60.36;99888.13;107704;1289;22003;-70
2023/06/26 09:40:31;;;;;;;308.50;84.40;;;;;;;29.20;61.41;99890.19;107859;1289;21984;-64
2023/06/26 09:43:06;;;;;;;232.40;69.30;;;;;;;28.69;62.39;99891.57;108007;1280;22000;-63
2023/06/26 09:45:34;;;;;;;193.30;63.40;;;;;;;28.26;63.25;99893.44;108019;1289;22004;-74
2023/06/26 09:48:02;;;;;;;158.50;51.00;;;;;;;27.96;64.07;99893.88;108068;1289;21991;-63
2023/06/26 09:50:28;;;;;;;177.80;56.40;;;;;;;27.78;65.08;99890.87;108085;1283;23061;-63
2023/06/26 09:52:55;;;;;;;103.90;35.40;;;;;;;27.68;66.17;99891.52;108035;1281;22073;-72
2023/06/26 09:55:23;;;;;;;106.10;34.60;;;;;;;27.67;67.24;99890.35;108072;1283;21988;-62
2023/06/26 09:57:50;;;;;;;40.30;22.00;;;;;;;27.73;68.03;99890.02;108177;1283;22157;-63
2023/06/26 10:00:16;;;;;;;96.90;32.40;;;;;;;27.85;68.83;99894.51;108096;1289;22993;-63
2023/06/26 10:02:44;;;;;;;96.40;34.50;;;;;;;27.97;69.05;99890.48;108013;1289;21995;-63
2023/06/26 10:05:10;;;;;;;32.50;17.80;;;;;;;28.10;69.30;99883.88;107992;1289;23609;-69
2023/06/26 10:07:36;;;;;;;33.10;19.40;;;;;;;28.27;69.92;99878.30;108032;1288;21994;-69
2023/06/26 10:10:02;;;;;;;49.70;21.90;;;;;;;28.45;70.40;99875.95;107860;1288;22030;-68
2023/06/26 10:12:33;;;;;;;20.20;15.60;;;;;;;28.59;70.68;99872.05;108067;1288;21990;-66
2023/06/26 10:15:00;;;;;;;49.30;23.40;;;;;;;28.75;70.64;99869.16;108003;1288;21993;-67
2023/06/26 10:17:31;;;;;;;50.80;23.30;;;;;;;28.90;70.88;99867.49;107956;1285;22027;-64
2023/06/26 10:19:58;;;;;;;36.20;20.10;;;;;;;29.04;70.97;99866.16;108038;1289;21992;-64
2023/06/26 10:22:27;;;;;;;30.50;16.60;;;;;;;29.17;71.42;99859.04;107807;1288;21982;-64
2023/06/26 10:24:53;;;;;;;51.80;21.60;;;;;;;29.35;71.67;99851.88;108000;1288;21986;-66
2023/06/26 10:27:25;;;;;;;52.00;22.40;;;;;;;29.55;71.72;99849.23;107742;1288;23675;-65
2023/06/26 10:29:54;;;;;;;44.40;21.80;;;;;;;29.77;73.26;99843.36;108018;1284;21992;-65
2023/06/26 10:32:20;;;;;;;56.90;24.00;;;;;;;29.99;73.41;99837.52;108024;1283;21986;-64
2023/06/26 10:34:46;;;;;;;55.90;24.30;;;;;;;30.23;73.25;99838.70;107723;1288;21991;-65
2023/06/26 10:37:11;;;;;;;58.80;24.60;;;;;;;30.47;72.84;99836.59;108032;1288;23078;-63
2023/06/26 10:39:52;;;;;;;95.70;35.00;;;;;;;30.70;72.08;99836.04;108053;1288;22026;-66
2023/06/26 10:42:18;;;;;;;79.20;29.70;;;;;;;30.91;72.23;99835.23;108056;1288;21998;-63
2023/06/26 10:44:45;;;;;;;168.70;48.30;;;;;;;31.09;71.57;99834.52;108092;1288;21995;-63
2023/06/26 10:47:32;;;;;;;118.80;38.70;;;;;;;31.20;71.78;99829.95;108093;1287;21994;-63
2023/06/26 10:50:24;;;;;;;64.60;25.10;;;;;;;31.39;72.14;99827.63;108045;1286;21992;-62
2023/06/26 10:53:20;;;;;;;188.90;57.30;;;;;;;31.73;72.28;99825.55;108065;1288;22001;-65
2023/06/26 10:55:50;;;;;;;115.80;42.60;;;;;;;31.98;70.50;99824.38;108037;1280;21994;-65
2023/06/26 10:58:40;;;;;;;193.70;60.40;;;;;;;32.34;70.89;99818.73;108051;1288;22027;-66
2023/06/26 11:01:12;;;;;;;134.60;44.70;;;;;;;32.77;72.36;99817.54;107851;1287;21989;-66
2023/06/26 11:03:41;;;;;;;251.70;68.40;;;;;;;33.41;74.26;99817.70;108063;1288;21987;-63
2023/06/26 11:06:15;;;;;;;288.30;68.20;;;;;;;34.08;73.11;99816.52;108263;1288;24217;-64
2023/06/26 11:08:55;;;;;;;402.90;113.20;;;;;;;34.75;71.78;99817.03;108330;1287;22013;-64
2023/06/26 11:11:21;;;;;;;573.90;192.60;;;;;;;35.30;68.98;99809.10;108394;1280;23737;-65